Time;durP1;ratioP1;P1;durP2;ratioP2;P2;SDS_P1;SDS_P2;PMS_P1;PMS_P2;Temp;Humidity;BMP_temperature;BMP_pressure;BME280_temperature;BME280_humidity;BME280_pressure;Samples;Min_cycle;Max_cycle;Signal;HPM_P1;HPM_P2
2022/03/24 00:01:56;;;;;;;;;;;;;;;;;;5096665;28;19912;-33
2022/03/24 00:04:22;;;;;;;;;;;;;;;;;;5096427;28;20355;-31
2022/03/24 00:06:48;;;;;;;;;;;;;;;;;;5096555;28;19919;-31
2022/03/24 00:09:14;;;;;;;;;;;;;;;;;;5096592;28;19912;-32
2022/03/24 00:11:40;;;;;;;;;;;;;;;;;;5096517;28;19960;-32
2022/03/24 00:14:06;;;;;;;;;;;;;;;;;;5096370;28;19978;-31
2022/03/24 00:16:32;;;;;;;;;;;;;;;;;;5097002;28;19916;-36
2022/03/24 00:18:59;;;;;;;;;;;;;;;;;;5096460;28;20006;-33
2022/03/24 00:21:25;;;;;;;;;;;;;;;;;;5096788;28;19927;-34
2022/03/24 00:23:51;;;;;;;;;;;;;;;;;;5096274;28;20020;-31
2022/03/24 00:26:17;;;;;;;;;;;;;;;;;;5096858;28;19916;-31
2022/03/24 00:28:43;;;;;;;;;;;;;;;;;;5096865;28;20299;-30
2022/03/24 00:31:09;;;;;;;;;;;;;;;;;;5096416;28;20308;-32
2022/03/24 00:33:38;;;;;;;;;;;;;;;;;;5096108;28;19943;-32
2022/03/24 00:36:04;;;;;;;;;;;;;;;;;;5096298;28;19962;-34
2022/03/24 00:38:30;;;;;;;;;;;;;;;;;;5096110;28;19908;-34
2022/03/24 00:40:56;;;;;;;;;;;;;;;;;;5095942;28;19916;-32
2022/03/24 00:43:22;;;;;;;;;;;;;;;;;;5095937;28;19913;-30
2022/03/24 00:45:50;;;;;;;;;;;;;;;;;;5096117;28;19912;-31
2022/03/24 00:48:16;;;;;;;;;;;;;;;;;;5096178;28;19912;-34
2022/03/24 00:50:42;;;;;;;;;;;;;;;;;;5096149;28;19916;-34
2022/03/24 00:53:08;;;;;;;;;;;;;;;;;;5095777;28;20002;-36
2022/03/24 00:55:34;;;;;;;;;;;;;;;;;;5096301;28;19912;-33
2022/03/24 00:58:00;;;;;;;;;;;;;;;;;;5096033;28;19912;-31
2022/03/24 01:00:27;;;;;;;;;;;;;;;;;;5095570;28;19985;-31
2022/03/24 01:02:53;;;;;;;;;;;;;;;;;;5077553;28;19908;-30
2022/03/24 01:05:19;;;;;;;;;;;;;;;;;;5095565;28;20012;-33
2022/03/24 01:07:45;;;;;;;;;;;;;;;;;;5077729;28;19912;-32
2022/03/24 01:10:11;;;;;;;;;;;;;;;;;;5096119;28;19922;-33
2022/03/24 01:12:39;;;;;;;;;;;;;;;;;;5095443;28;19944;-31
2022/03/24 01:15:05;;;;;;;;;;;;;;;;;;5077690;28;19923;-32
2022/03/24 01:17:31;;;;;;;;;;;;;;;;;;5095754;28;19912;-33
2022/03/24 01:19:58;;;;;;;;;;;;;;;;;;5095410;28;19945;-32
2022/03/24 01:22:24;;;;;;;;;;;;;;;;;;5095318;28;19924;-32
2022/03/24 01:24:50;;;;;;;;;;;;;;;;;;5095639;28;19912;-30
2022/03/24 01:27:16;;;;;;;;;;;;;;;;;;5095568;28;20250;-31
2022/03/24 01:29:42;;;;;;;;;;;;;;;;;;5095532;28;19916;-32
2022/03/24 01:32:08;;;;;;;;;;;;;;;;;;5095150;28;20258;-33
2022/03/24 01:34:34;;;;;;;;;;;;;;;;;;5077472;28;19934;-31
2022/03/24 01:37:00;;;;;;;;;;;;;;;;;;5095544;28;19908;-32
2022/03/24 01:39:26;;;;;;;;;;;;;;;;;;5095177;28;19912;-31
2022/03/24 01:41:52;;;;;;;;;;;;;;;;;;5095344;28;20322;-31
2022/03/24 01:44:18;;;;;;;;;;;;;;;;;;5095484;28;20001;-30
2022/03/24 01:46:44;;;;;;;;;;;;;;;;;;5095347;28;20318;-32
2022/03/24 01:49:10;;;;;;;;;;;;;;;;;;5095657;28;19908;-33
2022/03/24 01:51:36;;;;;;;;;;;;;;;;;;5095313;28;19923;-31
2022/03/24 01:54:02;;;;;;;;;;;;;;;;;;5094951;28;20255;-32
2022/03/24 01:56:28;;;;;;;;;;;;;;;;;;5095630;28;19912;-33
2022/03/24 01:58:54;;;;;;;;;;;;;;;;;;5099472;28;19908;-33
2022/03/24 02:01:22;;;;;;;;;;;;;;;;;;5099794;28;19927;-31
2022/03/24 02:03:48;;;;;;;;;;;;;;;;;;5098827;28;19920;-32
2022/03/24 02:06:14;;;;;;;;;;;;;;;;;;5099043;28;19985;-31
2022/03/24 02:08:40;;;;;;;;;;;;;;;;;;5081138;28;19915;-30
2022/03/24 02:11:06;;;;;;;;;;;;;;;;;;5099474;28;20064;-30
2022/03/24 02:13:33;;;;;;;;;;;;;;;;;;5080990;28;19914;-31
2022/03/24 02:16:01;;;;;;;;;;;;;;;;;;5098831;28;19919;-33
2022/03/24 02:18:27;;;;;;;;;;;;;;;;;;5099010;28;19998;-34
2022/03/24 02:20:53;;;;;;;;;;;;;;;;;;5098573;28;19916;-31
2022/03/24 02:23:19;;;;;;;;;;;;;;;;;;5098608;28;19915;-34
2022/03/24 02:25:45;;;;;;;;;;;;;;;;;;5098620;28;19912;-31
2022/03/24 02:28:11;;;;;;;;;;;;;;;;;;5098608;28;19916;-30
2022/03/24 02:30:37;;;;;;;;;;;;;;;;;;5098815;28;19995;-32
2022/03/24 02:33:03;;;;;;;;;;;;;;;;;;5098462;28;19947;-32
2022/03/24 02:35:29;;;;;;;;;;;;;;;;;;5098384;28;19912;-31
2022/03/24 02:37:55;;;;;;;;;;;;;;;;;;5080559;28;19918;-32
2022/03/24 02:40:21;;;;;;;;;;;;;;;;;;5098280;28;19942;-31
2022/03/24 02:42:47;;;;;;;;;;;;;;;;;;5098501;28;19908;-32
2022/03/24 02:45:13;;;;;;;;;;;;;;;;;;5098548;28;20007;-31
2022/03/24 02:47:39;;;;;;;;;;;;;;;;;;5098202;28;20330;-33
2022/03/24 02:50:05;;;;;;;;;;;;;;;;;;5098157;28;19916;-32
2022/03/24 02:52:31;;;;;;;;;;;;;;;;;;5098251;28;19997;-32
2022/03/24 02:54:57;;;;;;;;;;;;;;;;;;5098366;28;20265;-32
2022/03/24 02:57:24;;;;;;;;;;;;;;;;;;5098263;28;19912;-35
2022/03/24 02:59:50;;;;;;;;;;;;;;;;;;5097898;28;20350;-32
2022/03/24 03:02:16;;;;;;;;;;;;;;;;;;5097888;28;20003;-32
2022/03/24 03:04:43;;;;;;;;;;;;;;;;;;5097704;28;19931;-33
2022/03/24 03:07:09;;;;;;;;;;;;;;;;;;5097862;28;19918;-34
2022/03/24 03:09:35;;;;;;;;;;;;;;;;;;5096712;28;19959;-33
2022/03/24 03:12:01;;;;;;;;;;;;;;;;;;5097912;28;19931;-33
2022/03/24 03:14:30;;;;;;;;;;;;;;;;;;5097676;28;19959;-31
2022/03/24 03:16:56;;;;;;;;;;;;;;;;;;5097549;28;19913;-31
2022/03/24 03:19:22;;;;;;;;;;;;;;;;;;5079729;28;20301;-34
2022/03/24 03:21:49;;;;;;;;;;;;;;;;;;5097448;28;20012;-31
2022/03/24 03:24:15;;;;;;;;;;;;;;;;;;5097790;28;19908;-33
2022/03/24 03:26:41;;;;;;;;;;;;;;;;;;5097673;28;19916;-32
2022/03/24 03:29:08;;;;;;;;;;;;;;;;;;5097520;28;19908;-33
2022/03/24 03:31:37;;;;;;;;;;;;;;;;;;5097375;28;19919;-32
2022/03/24 03:34:03;;;;;;;;;;;;;;;;;;5097325;28;19913;-31
2022/03/24 03:36:30;;;;;;;;;;;;;;;;;;5097239;28;19911;-31
2022/03/24 03:38:56;;;;;;;;;;;;;;;;;;5097250;28;20334;-33
2022/03/24 03:41:22;;;;;;;;;;;;;;;;;;5097147;28;19955;-36
2022/03/24 03:43:48;;;;;;;;;;;;;;;;;;5097356;28;19986;-33
2022/03/24 03:46:15;;;;;;;;;;;;;;;;;;5097096;28;19912;-33
2022/03/24 03:48:41;;;;;;;;;;;;;;;;;;5097037;28;19916;-31
2022/03/24 03:51:08;;;;;;;;;;;;;;;;;;5097598;28;19970;-32
2022/03/24 03:53:34;;;;;;;;;;;;;;;;;;5097539;28;20247;-31
2022/03/24 03:56:00;;;;;;;;;;;;;;;;;;5097789;28;19965;-33
2022/03/24 03:58:26;;;;;;;;;;;;;;;;;;5096896;28;20385;-33
2022/03/24 04:00:58;;;;;;;;;;;;;;;;;;5096986;28;20262;-33
2022/03/24 04:03:24;;;;;;;;;;;;;;;;;;5096576;28;19916;-35
2022/03/24 04:05:50;;;;;;;;;;;;;;;;;;5096736;28;19912;-31
2022/03/24 04:08:16;;;;;;;;;;;;;;;;;;5096763;28;20391;-33
2022/03/24 04:10:42;;;;;;;;;;;;;;;;;;5096638;28;19916;-31
2022/03/24 04:13:08;;;;;;;;;;;;;;;;;;5096821;28;19909;-35
2022/03/24 04:15:34;;;;;;;;;;;;;;;;;;5096592;28;20362;-32
2022/03/24 04:18:00;;;;;;;;;;;;;;;;;;5097113;28;19912;-35
2022/03/24 04:20:26;;;;;;;;;;;;;;;;;;5096015;28;19916;-33
2022/03/24 04:22:52;;;;;;;;;;;;;;;;;;5096357;28;19923;-34
2022/03/24 04:25:18;;;;;;;;;;;;;;;;;;5096338;28;19991;-34
2022/03/24 04:27:44;;;;;;;;;;;;;;;;;;5096545;28;20008;-33
2022/03/24 04:30:12;;;;;;;;;;;;;;;;;;5096250;28;20294;-29
2022/03/24 04:32:38;;;;;;;;;;;;;;;;;;5096059;28;19923;-30
2022/03/24 04:35:04;;;;;;;;;;;;;;;;;;5096153;28;19908;-30
2022/03/24 04:37:30;;;;;;;;;;;;;;;;;;5096340;28;19964;-34
2022/03/24 04:39:56;;;;;;;;;;;;;;;;;;5078029;28;20426;-32
2022/03/24 04:42:21;;;;;;;;;;;;;;;;;;5095813;28;19916;-34
2022/03/24 04:44:47;;;;;;;;;;;;;;;;;;5095854;28;19999;-32
2022/03/24 04:47:15;;;;;;;;;;;;;;;;;;5095920;28;19912;-33
2022/03/24 04:49:41;;;;;;;;;;;;;;;;;;5096116;28;20045;-32
2022/03/24 04:52:07;;;;;;;;;;;;;;;;;;5095667;28;20319;-31
2022/03/24 04:54:34;;;;;;;;;;;;;;;;;;5096332;28;19935;-35
2022/03/24 04:56:59;;;;;;;;;;;;;;;;;;5095723;28;19911;-34
2022/03/24 04:59:25;;;;;;;;;;;;;;;;;;5095684;28;20228;-34
2022/03/24 05:01:51;;;;;;;;;;;;;;;;;;5095478;28;19920;-33
2022/03/24 05:04:17;;;;;;;;;;;;;;;;;;5095387;28;20408;-31
2022/03/24 05:06:45;;;;;;;;;;;;;;;;;;5095061;28;19908;-31
2022/03/24 05:09:12;;;;;;;;;;;;;;;;;;5077376;28;19912;-33
2022/03/24 05:11:38;;;;;;;;;;;;;;;;;;5095169;28;19912;-31
2022/03/24 05:14:04;;;;;;;;;;;;;;;;;;5095156;28;19912;-32
2022/03/24 05:16:30;;;;;;;;;;;;;;;;;;5095315;28;19908;-31
2022/03/24 05:18:56;;;;;;;;;;;;;;;;;;5077538;28;19912;-31
2022/03/24 05:21:23;;;;;;;;;;;;;;;;;;5077328;28;20308;-34
2022/03/24 05:23:49;;;;;;;;;;;;;;;;;;5077235;28;19908;-32
2022/03/24 05:26:19;;;;;;;;;;;;;;;;;;5095661;28;19922;-34
2022/03/24 05:28:45;;;;;;;;;;;;;;;;;;5095096;28;19991;-32
2022/03/24 05:31:11;;;;;;;;;;;;;;;;;;5094400;28;20323;-32
2022/03/24 05:33:37;;;;;;;;;;;;;;;;;;5095320;28;19908;-31
2022/03/24 05:36:03;;;;;;;;;;;;;;;;;;5095143;28;19919;-34
2022/03/24 05:38:29;;;;;;;;;;;;;;;;;;5077065;28;19912;-32
2022/03/24 05:40:55;;;;;;;;;;;;;;;;;;5095072;28;19967;-33
2022/03/24 05:43:21;;;;;;;;;;;;;;;;;;5095739;28;19912;-32
2022/03/24 05:45:47;;;;;;;;;;;;;;;;;;5095339;28;19966;-32
2022/03/24 05:48:13;;;;;;;;;;;;;;;;;;5095211;28;20334;-32
2022/03/24 05:50:40;;;;;;;;;;;;;;;;;;5094800;28;19916;-34
2022/03/24 05:53:06;;;;;;;;;;;;;;;;;;5094683;28;19918;-34
2022/03/24 05:55:34;;;;;;;;;;;;;;;;;;5095268;28;20313;-32
2022/03/24 05:58:00;;;;;;;;;;;;;;;;;;5095479;28;19962;-34
2022/03/24 06:03:17;;;;;;;;;;;;;;;;;;5424045;22;19949;-25
2022/03/24 06:05:43;;;;;;;;;;;;;;;;;;5095032;28;19923;-26
2022/03/24 06:08:09;;;;;;;;;;;;;;;;;;5094953;28;20346;-26
2022/03/24 06:10:35;;;;;;;;;;;;;;;;;;5095450;28;19916;-26
2022/03/24 06:13:01;;;;;;;;;;;;;;;;;;5106849;28;19912;-26
2022/03/24 06:15:28;;;;;;;;;;;;;;;;;;5115129;28;20410;-26
2022/03/24 06:17:54;;;;;;;;;;;;;;;;;;5115417;28;19923;-26
2022/03/24 06:20:20;;;;;;;;;;;;;;;;;;5115199;28;19927;-26
2022/03/24 06:22:46;;;;;;;;;;;;;;;;;;5114983;28;20267;-26
2022/03/24 06:25:12;;;;;;;;;;;;;;;;;;5115330;28;20358;-26
2022/03/24 06:27:39;;;;;;;;;;;;;;;;;;5114978;28;19994;-26
2022/03/24 06:30:05;;;;;;;;;;;;;;;;;;5096936;28;19912;-26
2022/03/24 06:32:31;;;;;;;;;;;;;;;;;;5115076;28;19908;-26
2022/03/24 06:34:58;;;;;;;;;;;;;;;;;;5114924;28;20354;-26
2022/03/24 06:37:24;;;;;;;;;;;;;;;;;;5114879;28;19911;-26
2022/03/24 06:39:50;;;;;;;;;;;;;;;;;;5114728;28;20410;-26
2022/03/24 06:42:16;;;;;;;;;;;;;;;;;;5114793;28;19912;-26
2022/03/24 06:44:42;;;;;;;;;;;;;;;;;;5118674;28;19931;-26
2022/03/24 06:47:09;;;;;;;;;;;;;;;;;;5118546;28;20391;-27
2022/03/24 06:49:35;;;;;;;;;;;;;;;;;;5118438;28;19911;-26
2022/03/24 06:52:01;;;;;;;;;;;;;;;;;;5118316;28;19908;-26
2022/03/24 06:54:27;;;;;;;;;;;;;;;;;;5118278;28;19911;-26
2022/03/24 06:56:53;;;;;;;;;;;;;;;;;;5100237;28;19911;-26
2022/03/24 06:59:19;;;;;;;;;;;;;;;;;;5118606;28;19911;-26
2022/03/24 07:01:47;;;;;;;;;;;;;;;;;;5118037;28;19915;-26
2022/03/24 07:04:13;;;;;;;;;;;;;;;;;;5105438;28;20038;-26
2022/03/24 07:06:40;;;;;;;;;;;;;;;;;;5079682;28;20385;-25
2022/03/24 07:09:06;;;;;;;;;;;;;;;;;;5079787;28;19920;-25
2022/03/24 07:11:32;;;;;;;;;;;;;;;;;;5097805;28;19908;-26
2022/03/24 07:13:58;;;;;;;;;;;;;;;;;;5097541;28;20314;-26
2022/03/24 07:16:24;;;;;;;;;;;;;;;;;;5097724;28;19962;-26
2022/03/24 07:18:51;;;;;;;;;;;;;;;;;;5079696;28;20314;-28
2022/03/24 07:21:17;;;;;;;;;;;;;;;;;;5097577;28;20304;-26
2022/03/24 07:23:43;;;;;;;;;;;;;;;;;;5097290;28;19916;-26
2022/03/24 07:26:09;;;;;;;;;;;;;;;;;;5097493;28;19912;-26
2022/03/24 07:28:35;;;;;;;;;;;;;;;;;;5097494;28;19953;-26
2022/03/24 07:31:01;;;;;;;;;;;;;;;;;;5079437;28;19970;-26
2022/03/24 07:33:27;;;;;;;;;;;;;;;;;;5097095;28;19912;-26
2022/03/24 07:35:53;;;;;;;;;;;;;;;;;;5097686;28;19999;-26
2022/03/24 07:38:19;;;;;;;;;;;;;;;;;;5097649;28;19920;-26
2022/03/24 07:40:45;;;;;;;;;;;;;;;;;;5097293;28;20250;-26
2022/03/24 07:43:11;;;;;;;;;;;;;;;;;;5096973;28;19923;-26
2022/03/24 07:45:38;;;;;;;;;;;;;;;;;;5097224;28;19912;-26
2022/03/24 07:48:04;;;;;;;;;;;;;;;;;;5097199;28;19908;-26
2022/03/24 07:50:30;;;;;;;;;;;;;;;;;;5096834;28;19916;-26
2022/03/24 07:52:56;;;;;;;;;;;;;;;;;;5096673;28;19908;-26
2022/03/24 07:55:23;;;;;;;;;;;;;;;;;;5096122;28;19943;-26
2022/03/24 07:57:49;;;;;;;;;;;;;;;;;;5079273;28;19912;-26
2022/03/24 08:00:15;;;;;;;;;;;;;;;;;;5097064;28;20011;-26
2022/03/24 08:02:41;;;;;;;;;;;;;;;;;;5096602;28;19913;-25
2022/03/24 08:05:07;;;;;;;;;;;;;;;;;;5116576;28;19920;-26
2022/03/24 08:07:33;;;;;;;;;;;;;;;;;;5117073;28;19915;-26
2022/03/24 08:09:59;;;;;;;;;;;;;;;;;;5117159;28;20006;-26
2022/03/24 08:12:26;;;;;;;;;;;;;;;;;;5116952;28;20010;-26
2022/03/24 08:14:52;;;;;;;;;;;;;;;;;;5117110;28;19907;-26
2022/03/24 08:17:18;;;;;;;;;;;;;;;;;;5116772;28;20057;-26
2022/03/24 08:19:44;;;;;;;;;;;;;;;;;;5116878;28;20056;-26
2022/03/24 08:22:10;;;;;;;;;;;;;;;;;;5098675;28;19916;-27
2022/03/24 08:24:36;;;;;;;;;;;;;;;;;;5116692;28;19964;-27
2022/03/24 08:27:02;;;;;;;;;;;;;;;;;;5098725;28;19908;-26
2022/03/24 08:29:28;;;;;;;;;;;;;;;;;;5116532;28;19912;-26
2022/03/24 08:31:54;;;;;;;;;;;;;;;;;;5116646;28;19926;-25
2022/03/24 08:34:20;;;;;;;;;;;;;;;;;;5116736;28;19915;-26
2022/03/24 08:36:46;;;;;;;;;;;;;;;;;;5116333;28;20254;-27
2022/03/24 08:39:12;;;;;;;;;;;;;;;;;;5116279;28;19988;-26
2022/03/24 08:41:38;;;;;;;;;;;;;;;;;;5116382;28;20322;-27
2022/03/24 08:44:04;;;;;;;;;;;;;;;;;;5116364;28;20227;-26
2022/03/24 08:46:30;;;;;;;;;;;;;;;;;;5116393;28;19957;-27
2022/03/24 08:48:56;;;;;;;;;;;;;;;;;;5116718;28;20374;-27
2022/03/24 08:51:22;;;;;;;;;;;;;;;;;;5116358;28;20017;-26
2022/03/24 08:53:49;;;;;;;;;;;;;;;;;;5115934;28;20265;-26
2022/03/24 08:56:14;;;;;;;;;;;;;;;;;;5115975;28;19911;-27
2022/03/24 08:58:41;;;;;;;;;;;;;;;;;;5115967;28;19964;-27
2022/03/24 09:01:07;;;;;;;;;;;;;;;;;;5116300;28;19916;-26
2022/03/24 09:03:33;;;;;;;;;;;;;;;;;;5115682;28;20018;-26
2022/03/24 09:05:58;;;;;;;;;;;;;;;;;;5115435;28;19911;-27
2022/03/24 09:08:25;;;;;;;;;;;;;;;;;;5115578;28;19908;-26
2022/03/24 09:10:53;;;;;;;;;;;;;;;;;;5115332;28;21247;-25
2022/03/24 09:13:19;;;;;;;;;;;;;;;;;;5115896;28;19947;-26
2022/03/24 09:15:45;;;;;;;;;;;;;;;;;;5098709;28;19918;-27
2022/03/24 09:18:13;;;;;;;;;;;;;;;;;;5115555;28;19946;-26
2022/03/24 09:20:39;;;;;;;;;;;;;;;;;;5114598;28;19919;-27
2022/03/24 09:23:07;;;;;;;;;;;;;;;;;;5115629;28;20376;-26
2022/03/24 09:25:33;;;;;;;;;;;;;;;;;;5115634;28;19912;-27
2022/03/24 09:27:59;;;;;;;;;;;;;;;;;;5115929;28;20010;-27
2022/03/24 09:30:25;;;;;;;;;;;;;;;;;;5115486;28;19946;-26
2022/03/24 09:32:52;;;;;;;;;;;;;;;;;;5115344;28;19911;-26
2022/03/24 09:35:18;;;;;;;;;;;;;;;;;;5115540;28;19918;-26
2022/03/24 09:37:44;;;;;;;;;;;;;;;;;;5115706;28;20242;-26
2022/03/24 09:40:11;;;;;;;;;;;;;;;;;;5115706;28;19912;-26
2022/03/24 09:42:38;;;;;;;;;;;;;;;;;;5115739;28;20261;-26
2022/03/24 09:45:05;;;;;;;;;;;;;;;;;;5115494;28;19928;-26
2022/03/24 09:47:31;;;;;;;;;;;;;;;;;;5115501;28;19919;-26
2022/03/24 09:49:57;;;;;;;;;;;;;;;;;;5115320;28;19947;-26
2022/03/24 09:52:24;;;;;;;;;;;;;;;;;;5115504;28;19919;-27
2022/03/24 09:54:50;;;;;;;;;;;;;;;;;;5115392;28;19918;-25
2022/03/24 09:57:16;;;;;;;;;;;;;;;;;;5115576;28;19994;-24
2022/03/24 09:59:42;;;;;;;;;;;;;;;;;;5115275;28;19912;-26
2022/03/24 10:02:09;;;;;;;;;;;;;;;;;;5115234;28;20377;-24
2022/03/24 10:04:35;;;;;;;;;;;;;;;;;;5115167;28;19927;-25
2022/03/24 10:07:02;;;;;;;;;;;;;;;;;;5115452;28;20319;-25
2022/03/24 10:09:28;;;;;;;;;;;;;;;;;;5115194;28;19951;-26
2022/03/24 10:11:54;;;;;;;;;;;;;;;;;;5116046;28;19915;-26
2022/03/24 10:14:20;;;;;;;;;;;;;;;;;;5115938;28;19950;-26
2022/03/24 10:16:46;;;;;;;;;;;;;;;;;;5115125;28;19951;-26
2022/03/24 10:19:12;;;;;;;;;;;;;;;;;;5118445;28;20007;-26
2022/03/24 10:21:38;;;;;;;;;;;;;;;;;;5118865;28;19916;-26
2022/03/24 10:24:04;;;;;;;;;;;;;;;;;;5119536;28;20000;-26
2022/03/24 10:26:30;;;;;;;;;;;;;;;;;;5119226;28;20002;-25
2022/03/24 10:28:56;;;;;;;;;;;;;;;;;;5118793;28;19916;-26
2022/03/24 10:31:22;;;;;;;;;;;;;;;;;;5100644;28;19904;-26
2022/03/24 10:33:48;;;;;;;;;;;;;;;;;;5118748;28;20350;-26
2022/03/24 10:36:14;;;;;;;;;;;;;;;;;;5100842;28;19951;-25
2022/03/24 10:38:41;;;;;;;;;;;;;;;;;;5118488;28;19908;-25
2022/03/24 10:41:07;;;;;;;;;;;;;;;;;;5118712;28;20353;-25
2022/03/24 10:43:33;;;;;;;;;;;;;;;;;;5100491;28;19908;-26
2022/03/24 10:45:58;;;;;;;;;;;;;;;;;;5118422;28;19912;-26
2022/03/24 10:48:24;;;;;;;;;;;;;;;;;;5118418;28;19918;-26
2022/03/24 10:50:50;;;;;;;;;;;;;;;;;;5118456;28;19922;-25
2022/03/24 10:53:18;;;;;;;;;;;;;;;;;;5118480;28;19918;-26
2022/03/24 10:55:44;;;;;;;;;;;;;;;;;;5100152;28;19912;-26
2022/03/24 10:58:10;;;;;;;;;;;;;;;;;;5118804;28;19908;-26
2022/03/24 11:00:36;;;;;;;;;;;;;;;;;;5118094;28;20304;-25
2022/03/24 11:03:02;;;;;;;;;;;;;;;;;;5117867;28;19911;-25
2022/03/24 11:05:28;;;;;;;;;;;;;;;;;;5118440;28;20315;-26
2022/03/24 11:07:54;;;;;;;;;;;;;;;;;;5118658;28;19912;-26
2022/03/24 11:10:20;;;;;;;;;;;;;;;;;;5117992;28;19991;-25
2022/03/24 11:12:46;;;;;;;;;;;;;;;;;;5118311;28;20349;-25
2022/03/24 11:15:12;;;;;;;;;;;;;;;;;;5117684;28;19912;-25
2022/03/24 11:17:38;;;;;;;;;;;;;;;;;;5118169;28;19950;-26
2022/03/24 11:20:04;;;;;;;;;;;;;;;;;;5099742;28;20006;-25
2022/03/24 11:22:30;;;;;;;;;;;;;;;;;;5117493;28;20338;-25
2022/03/24 11:24:56;;;;;;;;;;;;;;;;;;5118358;28;19908;-25
2022/03/24 11:27:22;;;;;;;;;;;;;;;;;;5117761;28;19957;-25
2022/03/24 11:29:48;;;;;;;;;;;;;;;;;;5116408;28;19960;-26
2022/03/24 11:32:14;;;;;;;;;;;;;;;;;;5118029;28;19918;-25
2022/03/24 11:34:40;;;;;;;;;;;;;;;;;;5117592;28;19920;-25
2022/03/24 11:37:06;;;;;;;;;;;;;;;;;;5117919;28;19977;-27
2022/03/24 11:39:32;;;;;;;;;;;;;;;;;;5117634;28;20365;-25
2022/03/24 11:41:59;;;;;;;;;;;;;;;;;;5117192;28;20009;-25
2022/03/24 11:44:25;;;;;;;;;;;;;;;;;;5117992;28;19937;-25
2022/03/24 11:46:51;;;;;;;;;;;;;;;;;;5117118;28;19908;-26
2022/03/24 11:49:17;;;;;;;;;;;;;;;;;;5117420;28;20307;-25
2022/03/24 11:51:44;;;;;;;;;;;;;;;;;;5117234;28;19998;-26
2022/03/24 11:54:10;;;;;;;;;;;;;;;;;;5117264;28;19911;-25
2022/03/24 11:56:36;;;;;;;;;;;;;;;;;;5117254;28;19912;-25
2022/03/24 11:59:03;;;;;;;;;;;;;;;;;;5099794;28;19907;-26
2022/03/24 12:01:30;;;;;;;;;;;;;;;;;;5117328;28;20105;-25
2022/03/24 12:03:56;;;;;;;;;;;;;;;;;;5116850;28;20342;-25
2022/03/24 12:06:22;;;;;;;;;;;;;;;;;;5117510;28;19916;-25
2022/03/24 12:08:48;;;;;;;;;;;;;;;;;;5117075;28;19907;-25
2022/03/24 12:11:14;;;;;;;;;;;;;;;;;;5116943;28;19924;-25
2022/03/24 12:13:40;;;;;;;;;;;;;;;;;;5117130;28;19908;-25
2022/03/24 12:16:06;;;;;;;;;;;;;;;;;;5116907;28;20304;-31
2022/03/24 12:18:32;;;;;;;;;;;;;;;;;;5117027;28;19916;-25
2022/03/24 12:20:58;;;;;;;;;;;;;;;;;;5116654;28;19916;-25
2022/03/24 12:23:24;;;;;;;;;;;;;;;;;;5116727;28;20364;-25
2022/03/24 12:25:50;;;;;;;;;;;;;;;;;;5116727;28;19937;-24
2022/03/24 12:28:17;;;;;;;;;;;;;;;;;;5099701;28;19919;-24
2022/03/24 12:30:43;;;;;;;;;;;;;;;;;;5116597;28;20288;-24
2022/03/24 12:33:09;;;;;;;;;;;;;;;;;;5116095;28;19919;-24
2022/03/24 12:35:35;;;;;;;;;;;;;;;;;;5116954;28;20309;-25
2022/03/24 12:38:01;;;;;;;;;;;;;;;;;;5116664;28;19951;-25
2022/03/24 12:40:27;;;;;;;;;;;;;;;;;;5116258;28;19915;-25
2022/03/24 12:42:53;;;;;;;;;;;;;;;;;;5116181;28;19908;-25
2022/03/24 12:45:19;;;;;;;;;;;;;;;;;;5116179;28;20254;-25
2022/03/24 12:47:45;;;;;;;;;;;;;;;;;;5116140;28;19908;-25
2022/03/24 12:50:11;;;;;;;;;;;;;;;;;;5116369;28;19955;-25
2022/03/24 12:52:37;;;;;;;;;;;;;;;;;;5116104;28;19908;-25
2022/03/24 12:55:03;;;;;;;;;;;;;;;;;;5116152;28;19918;-25
2022/03/24 12:57:29;;;;;;;;;;;;;;;;;;5116228;28;19915;-25
2022/03/24 12:59:55;;;;;;;;;;;;;;;;;;5115929;28;19908;-25
2022/03/24 13:02:21;;;;;;;;;;;;;;;;;;5098495;28;19984;-25
2022/03/24 13:04:47;;;;;;;;;;;;;;;;;;5115840;28;19947;-26
2022/03/24 13:07:13;;;;;;;;;;;;;;;;;;5115721;28;19919;-25
2022/03/24 13:09:39;;;;;;;;;;;;;;;;;;5115474;28;19972;-26
2022/03/24 13:12:08;;;;;;;;;;;;;;;;;;5115283;28;20370;-25
2022/03/24 13:14:34;;;;;;;;;;;;;;;;;;5115208;28;19907;-25
2022/03/24 13:17:00;;;;;;;;;;;;;;;;;;5115307;28;19976;-25
2022/03/24 13:19:26;;;;;;;;;;;;;;;;;;5115201;28;19907;-26
2022/03/24 13:21:52;;;;;;;;;;;;;;;;;;5115471;28;20022;-26
2022/03/24 13:24:18;;;;;;;;;;;;;;;;;;5115758;28;20369;-25
2022/03/24 13:26:45;;;;;;;;;;;;;;;;;;5115211;28;19908;-26
2022/03/24 13:29:12;;;;;;;;;;;;;;;;;;5115170;28;19989;-25
2022/03/24 13:31:38;;;;;;;;;;;;;;;;;;5115082;28;19944;-25
2022/03/24 13:34:04;;;;;;;;;;;;;;;;;;5115135;28;19921;-25
2022/03/24 13:36:31;;;;;;;;;;;;;;;;;;5115747;28;19908;-26
2022/03/24 13:38:57;;;;;;;;;;;;;;;;;;5115415;28;19973;-25
2022/03/24 13:41:27;;;;;;;;;;;;;;;;;;5115462;28;19912;-25
2022/03/24 13:43:55;;;;;;;;;;;;;;;;;;5115311;28;19962;-25
2022/03/24 13:46:21;;;;;;;;;;;;;;;;;;5115412;28;19922;-26
2022/03/24 13:48:47;;;;;;;;;;;;;;;;;;5115286;28;19908;-26
2022/03/24 13:51:13;;;;;;;;;;;;;;;;;;5115743;28;19911;-25
2022/03/24 13:53:39;;;;;;;;;;;;;;;;;;5117710;28;20337;-25
2022/03/24 13:56:06;;;;;;;;;;;;;;;;;;5119504;28;19922;-25
2022/03/24 13:58:32;;;;;;;;;;;;;;;;;;5119353;28;19907;-26
2022/03/24 14:00:58;;;;;;;;;;;;;;;;;;5119389;28;20262;-26
2022/03/24 14:03:24;;;;;;;;;;;;;;;;;;5119230;28;19946;-25
2022/03/24 14:05:50;;;;;;;;;;;;;;;;;;5101400;28;19926;-25
2022/03/24 14:08:19;;;;;;;;;;;;;;;;;;5119371;28;19908;-26
2022/03/24 14:10:46;;;;;;;;;;;;;;;;;;5119529;28;20266;-26
2022/03/24 14:13:13;;;;;;;;;;;;;;;;;;5119198;28;19955;-26
2022/03/24 14:15:39;;;;;;;;;;;;;;;;;;5100952;28;20345;-26
2022/03/24 14:18:05;;;;;;;;;;;;;;;;;;5119395;28;19914;-25
2022/03/24 14:20:31;;;;;;;;;;;;;;;;;;5118962;28;19915;-25
2022/03/24 14:22:57;;;;;;;;;;;;;;;;;;5118981;28;19977;-25
2022/03/24 14:25:23;;;;;;;;;;;;;;;;;;5100957;28;20339;-25
2022/03/24 14:27:52;;;;;;;;;;;;;;;;;;5100819;28;19908;-26
2022/03/24 14:30:19;;;;;;;;;;;;;;;;;;5119144;28;20002;-26
2022/03/24 14:32:46;;;;;;;;;;;;;;;;;;5118758;28;19907;-25
2022/03/24 14:35:12;;;;;;;;;;;;;;;;;;5118658;28;20421;-26
2022/03/24 14:37:39;;;;;;;;;;;;;;;;;;5118675;28;19965;-26
2022/03/24 14:40:05;;;;;;;;;;;;;;;;;;5118688;28;19923;-25
2022/03/24 14:42:31;;;;;;;;;;;;;;;;;;5118642;28;19912;-26
2022/03/24 14:44:57;;;;;;;;;;;;;;;;;;5119269;28;20063;-26
2022/03/24 14:47:23;;;;;;;;;;;;;;;;;;5118723;28;19947;-26
2022/03/24 14:49:49;;;;;;;;;;;;;;;;;;5118517;28;19998;-26
2022/03/24 14:52:15;;;;;;;;;;;;;;;;;;5118406;28;20004;-25
2022/03/24 14:54:41;;;;;;;;;;;;;;;;;;5100488;28;19908;-25
2022/03/24 14:57:07;;;;;;;;;;;;;;;;;;5119008;28;19912;-25
2022/03/24 14:59:34;;;;;;;;;;;;;;;;;;5118326;28;19933;-26
2022/03/24 15:02:00;;;;;;;;;;;;;;;;;;5117973;28;19924;-25
2022/03/24 15:04:26;;;;;;;;;;;;;;;;;;5117974;28;19930;-25
2022/03/24 15:06:52;;;;;;;;;;;;;;;;;;5118255;28;19911;-25
2022/03/24 15:09:18;;;;;;;;;;;;;;;;;;5118198;28;20289;-26
2022/03/24 15:11:44;;;;;;;;;;;;;;;;;;5118102;28;19919;-25
2022/03/24 15:16:54;;;;;;;;;;;;;;;;;;5118374;28;20045;-25
2022/03/24 15:19:21;;;;;;;;;;;;;;;;;;5117995;28;20357;-25
2022/03/24 15:21:47;;;;;;;;;;;;;;;;;;5117725;28;19926;-25
2022/03/24 15:24:13;;;;;;;;;;;;;;;;;;5117892;28;20061;-25
2022/03/24 15:26:39;;;;;;;;;;;;;;;;;;5118388;28;20342;-25
2022/03/24 15:29:05;;;;;;;;;;;;;;;;;;5118983;28;19995;-26
2022/03/24 15:31:31;;;;;;;;;;;;;;;;;;5117779;28;19912;-25
2022/03/24 15:33:58;;;;;;;;;;;;;;;;;;5117962;28;19912;-25
2022/03/24 15:36:24;;;;;;;;;;;;;;;;;;5117594;28;19907;-26
2022/03/24 15:38:50;;;;;;;;;;;;;;;;;;5099643;28;19908;-25
2022/03/24 15:41:16;;;;;;;;;;;;;;;;;;5117471;28;19955;-26
2022/03/24 15:43:42;;;;;;;;;;;;;;;;;;5117464;28;19911;-25
2022/03/24 15:46:09;;;;;;;;;;;;;;;;;;5117507;28;19908;-26
2022/03/24 15:48:35;;;;;;;;;;;;;;;;;;5117695;28;19912;-25
2022/03/24 15:51:01;;;;;;;;;;;;;;;;;;5117770;28;19914;-26
2022/03/24 15:53:27;;;;;;;;;;;;;;;;;;5117216;28;20254;-26
2022/03/24 15:55:53;;;;;;;;;;;;;;;;;;5117398;28;19912;-25
2022/03/24 15:58:22;;;;;;;;;;;;;;;;;;5117383;28;19942;-26
2022/03/24 16:00:48;;;;;;;;;;;;;;;;;;5116921;28;19939;-26
2022/03/24 16:03:14;;;;;;;;;;;;;;;;;;5117143;28;19938;-26
2022/03/24 16:05:40;;;;;;;;;;;;;;;;;;5117278;28;19911;-26
2022/03/24 16:08:06;;;;;;;;;;;;;;;;;;5116852;28;19908;-26
2022/03/24 16:10:32;;;;;;;;;;;;;;;;;;5116977;28;20347;-26
2022/03/24 16:12:58;;;;;;;;;;;;;;;;;;5116748;28;19922;-26
2022/03/24 16:15:25;;;;;;;;;;;;;;;;;;5116191;28;19912;-26
2022/03/24 16:17:51;;;;;;;;;;;;;;;;;;5116939;28;19907;-27
2022/03/24 16:20:18;;;;;;;;;;;;;;;;;;5116882;28;19916;-26
2022/03/24 16:22:44;;;;;;;;;;;;;;;;;;5116666;28;19907;-26
2022/03/24 16:25:11;;;;;;;;;;;;;;;;;;5116948;28;19912;-26
2022/03/24 16:27:37;;;;;;;;;;;;;;;;;;5117052;28;19954;-26
2022/03/24 16:30:03;;;;;;;;;;;;;;;;;;5116833;28;19911;-26
2022/03/24 16:32:29;;;;;;;;;;;;;;;;;;5116525;28;19912;-26
2022/03/24 16:34:55;;;;;;;;;;;;;;;;;;5116574;28;19923;-27
2022/03/24 16:37:22;;;;;;;;;;;;;;;;;;5116742;28;20250;-25
2022/03/24 16:39:48;;;;;;;;;;;;;;;;;;5116428;28;19912;-26
2022/03/24 16:42:14;;;;;;;;;;;;;;;;;;5116237;28;19984;-26
2022/03/24 16:44:40;;;;;;;;;;;;;;;;;;5098485;28;19972;-26